Terminal Aerodrome Forecast
Issued by NWS

Home | Current Version | Previous Version | Text Only | Print | Product List | Glossary On
Versions: 1 2 3 4 5 6 7 8 9 10 11 12 13 14 15 16 17 18 19 20 21 22 23 24
248
FTUS46 KLOX 251218 AAA
TAFSBP
TAF AMD
KSBP 251218Z 2512/2612 VRB03KT P6SM OVC018
     FM251500 VRB03KT P6SM OVC025
     FM252000 23008KT P6SM BKN025 BKN040
     FM260200 30008KT P6SM OVC025
     FM260800 VRB03KT P6SM OVC020=

USA.gov is the U.S. government's official web portal to all federal, state and local government web resources and services.